Time;durP1;ratioP1;P1;durP2;ratioP2;P2;SDS_P1;SDS_P2;PMS_P1;PMS_P2;Temp;Humidity;BMP_temperature;BMP_pressure;BME280_temperature;BME280_humidity;BME280_pressure;Samples;Min_cycle;Max_cycle;Signal;HPM_P1;HPM_P2
2023/09/01 00:01:03;;;;;;;8.43;3.90;;;;;;;17.38;100.00;96087.91;6188704;23;20031;-78
2023/09/01 00:03:51;;;;;;;10.23;4.13;;;;;;;17.58;100.00;96080.72;6193943;23;20616;-78
2023/09/01 00:06:17;;;;;;;8.23;3.73;;;;;;;17.44;100.00;96082.56;6188740;23;20004;-78
2023/09/01 00:08:43;;;;;;;6.53;2.80;;;;;;;17.17;100.00;96084.44;6189566;23;19997;-79
2023/09/01 00:11:09;;;;;;;7.00;3.30;;;;;;;17.09;100.00;96073.97;6188698;23;20090;-78
2023/09/01 00:13:35;;;;;;;7.17;3.40;;;;;;;17.16;100.00;96064.16;6190220;23;20007;-78
2023/09/01 00:16:01;;;;;;;7.50;2.97;;;;;;;17.03;100.00;96068.66;6188969;23;20012;-79
2023/09/01 00:18:26;;;;;;;8.90;3.13;;;;;;;17.25;100.00;96077.28;6188291;23;20750;-78
2023/09/01 00:21:00;;;;;;;7.83;3.57;;;;;;;17.24;100.00;96065.81;6188761;23;19996;-78
2023/09/01 00:23:26;;;;;;;10.83;3.57;;;;;;;17.50;100.00;96059.66;6189371;23;20074;-79
2023/09/01 00:25:56;;;;;;;9.77;3.67;;;;;;;17.61;100.00;96056.38;6214298;23;20008;-78
2023/09/01 00:28:22;;;;;;;7.97;2.90;;;;;;;17.50;100.00;96051.66;6214199;23;20008;-78
2023/09/01 00:30:55;;;;;;;7.93;3.20;;;;;;;17.54;100.00;96050.25;6188083;23;20081;-78
2023/09/01 00:33:24;;;;;;;9.38;3.95;;;;;;;17.59;100.00;96046.97;6213452;23;20761;-79
2023/09/01 00:35:51;;;;;;;6.83;2.83;;;;;;;17.71;100.00;96055.13;6213853;23;20000;-78
2023/09/01 00:38:17;;;;;;;6.00;2.20;;;;;;;17.73;100.00;96051.22;6188062;23;20004;-78
2023/09/01 00:40:42;;;;;;;6.03;2.47;;;;;;;17.45;100.00;96046.19;6187646;23;20008;-78
2023/09/01 00:43:08;;;;;;;7.03;3.40;;;;;;;17.73;100.00;96055.72;6187430;23;20570;-78
2023/09/01 00:45:36;;;;;;;7.87;2.97;;;;;;;17.89;100.00;96040.16;6188096;23;20011;-78
2023/09/01 00:48:06;;;;;;;7.63;2.57;;;;;;;17.56;100.00;96042.06;6187471;23;20015;-78
2023/09/01 00:50:33;;;;;;;7.40;2.90;;;;;;;17.76;100.00;96044.69;6212027;23;20014;-78
2023/09/01 00:53:00;;;;;;;7.07;2.60;;;;;;;17.78;100.00;96038.16;6212579;23;20039;-78
2023/09/01 00:55:26;;;;;;;7.03;2.90;;;;;;;17.96;100.00;96040.13;6187852;23;20004;-78
2023/09/01 00:57:53;;;;;;;7.17;3.03;;;;;;;17.85;100.00;96040.81;6211028;23;20073;-77
2023/09/01 01:00:44;;;;;;;5.67;3.40;;;;;;;17.89;100.00;96036.69;6185224;23;20023;-78
2023/09/01 01:03:11;;;;;;;8.00;3.10;;;;;;;18.29;100.00;96041.84;6186734;23;20095;-78
2023/09/01 01:06:16;;;;;;;6.53;2.70;;;;;;;18.19;100.00;96030.84;6188106;23;20000;-79
2023/09/01 01:08:42;;;;;;;8.37;2.37;;;;;;;18.42;100.00;96040.97;6214435;23;20403;-78
2023/09/01 01:11:20;;;;;;;6.80;2.60;;;;;;;18.27;100.00;96046.56;6211499;23;20015;-78
2023/09/01 01:13:50;;;;;;;4.60;2.60;;;;;;;18.30;100.00;96032.84;6186193;23;20004;-79
2023/09/01 01:16:16;;;;;;;5.93;2.60;;;;;;;18.23;100.00;96027.53;6186383;23;20011;-78
2023/09/01 01:18:45;;;;;;;7.10;2.40;;;;;;;18.62;100.00;96036.34;6187827;23;20061;-78
2023/09/01 01:21:19;;;;;;;7.87;2.67;;;;;;;18.29;100.00;96032.03;6188574;23;20018;-78
2023/09/01 01:23:45;;;;;;;6.30;2.30;;;;;;;18.23;100.00;96021.41;6189342;23;20015;-79
2023/09/01 01:26:18;;;;;;;7.22;2.42;;;;;;;17.98;100.00;96034.63;6214540;23;20015;-78
2023/09/01 01:28:44;;;;;;;5.00;2.53;;;;;;;17.98;100.00;96030.13;6186824;23;20008;-78
2023/09/01 01:31:10;;;;;;;6.87;3.03;;;;;;;18.05;100.00;96020.25;6184272;23;20015;-78
2023/09/01 01:34:03;;;;;;;5.75;2.70;;;;;;;17.98;100.00;96021.31;6184473;23;20373;-78
2023/09/01 01:36:35;;;;;;;6.83;2.77;;;;;;;17.92;100.00;96022.16;6185023;23;20007;-78
2023/09/01 01:39:07;;;;;;;7.37;3.03;;;;;;;17.93;100.00;96019.28;6185981;23;20494;-78
2023/09/01 01:41:45;;;;;;;5.73;2.17;;;;;;;17.70;100.00;96022.38;6138453;23;1213608;-78
2023/09/01 01:44:15;;;;;;;7.63;3.43;;;;;;;17.88;100.00;96009.28;6216414;23;20450;-79
2023/09/01 01:46:41;;;;;;;6.40;3.10;;;;;;;18.05;100.00;96003.47;6241458;23;20050;-78
2023/09/01 01:49:10;;;;;;;6.93;2.70;;;;;;;17.95;100.00;96011.91;6216011;23;20012;-78
2023/09/01 01:51:36;;;;;;;7.17;2.70;;;;;;;17.97;100.00;96009.84;6216182;23;20004;-78
2023/09/01 01:54:03;;;;;;;13.87;3.03;;;;;;;18.10;100.00;96022.28;6216584;23;20011;-79
2023/09/01 01:56:28;;;;;;;8.60;3.00;;;;;;;18.06;100.00;96008.56;6190718;23;20004;-78
2023/09/01 01:58:54;;;;;;;7.50;3.43;;;;;;;18.09;100.00;96020.66;6190071;23;20091;-79
2023/09/01 02:01:20;;;;;;;8.00;2.80;;;;;;;18.17;100.00;96022.25;6190680;23;20008;-78
2023/09/01 02:03:45;;;;;;;4.47;2.57;;;;;;;18.00;100.00;96022.72;6193012;23;20067;-78
2023/09/01 02:06:11;;;;;;;5.30;2.60;;;;;;;18.25;100.00;96019.34;6193190;23;20054;-78
2023/09/01 02:08:37;;;;;;;5.57;2.57;;;;;;;18.09;100.00;96016.13;6193340;23;20007;-78
2023/09/01 02:11:03;;;;;;;8.15;3.35;;;;;;;18.11;100.00;96022.09;6192180;23;20341;-78
2023/09/01 02:13:28;;;;;;;7.27;3.10;;;;;;;17.94;100.00;96020.94;6193094;23;20003;-79
2023/09/01 02:15:54;;;;;;;4.57;2.47;;;;;;;18.15;100.00;96030.47;6218195;23;20004;-78
2023/09/01 02:18:20;;;;;;;17.70;4.40;;;;;;;18.39;100.00;96028.91;6192734;23;20004;-78
2023/09/01 02:20:46;;;;;;;8.50;2.90;;;;;;;18.05;100.00;96038.88;6192688;23;20011;-77
2023/09/01 02:23:17;;;;;;;9.20;3.35;;;;;;;17.92;100.00;96041.59;6192866;23;20012;-78
2023/09/01 02:25:44;;;;;;;7.90;3.13;;;;;;;17.86;100.00;96042.44;6193113;23;20425;-78
2023/09/01 02:28:10;;;;;;;6.27;3.37;;;;;;;17.87;100.00;96044.91;6217440;23;20031;-78
2023/09/01 02:30:36;;;;;;;9.37;3.30;;;;;;;17.81;100.00;96042.25;6191799;23;20008;-79
2023/09/01 02:33:02;;;;;;;9.60;3.17;;;;;;;18.13;100.00;96051.94;6217228;23;20612;-78
2023/09/01 02:35:29;;;;;;;6.73;3.13;;;;;;;18.34;100.00;96047.34;6187218;23;20058;-78
2023/09/01 02:37:54;;;;;;;5.27;2.50;;;;;;;18.51;100.00;96039.69;6191978;23;20144;-78
2023/09/01 02:40:24;;;;;;;8.48;3.10;;;;;;;18.29;100.00;96037.34;6191597;23;20037;-78
2023/09/01 02:42:51;;;;;;;6.93;3.07;;;;;;;18.28;100.00;96037.56;6218229;23;20067;-78
2023/09/01 02:45:18;;;;;;;5.83;3.33;;;;;;;17.96;100.00;96032.16;6192352;23;20000;-78
2023/09/01 02:47:44;;;;;;;5.50;3.05;;;;;;;18.27;100.00;96027.94;6192183;23;20403;-78
2023/09/01 02:50:10;;;;;;;6.63;3.30;;;;;;;17.83;100.00;96037.53;6218286;23;20008;-78
2023/09/01 02:52:36;;;;;;;6.13;2.80;;;;;;;17.75;100.00;96029.75;6191728;23;20000;-78
2023/09/01 02:55:03;;;;;;;6.00;2.70;;;;;;;18.08;100.00;96035.00;6192800;23;20083;-78
2023/09/01 02:57:28;;;;;;;4.65;2.75;;;;;;;17.75;100.00;96032.41;6192056;23;20451;-78
2023/09/01 02:59:54;;;;;;;6.83;2.67;;;;;;;18.01;100.00;96034.22;6191994;23;20011;-78
2023/09/01 03:02:20;;;;;;;7.00;3.00;;;;;;;18.00;100.00;96032.56;6190892;23;20018;-78
2023/09/01 03:04:50;;;;;;;5.75;2.65;;;;;;;17.87;100.00;96039.56;6191002;23;20028;-78
2023/09/01 03:07:16;;;;;;;12.10;3.20;;;;;;;17.84;100.00;96039.16;6189925;23;20019;-78
2023/09/01 03:09:42;;;;;;;6.70;2.80;;;;;;;17.63;100.00;96043.66;6214051;23;20018;-78
2023/09/01 03:12:08;;;;;;;13.65;3.60;;;;;;;17.57;100.00;96049.84;6189037;23;20008;-78
2023/09/01 03:14:34;;;;;;;7.40;3.13;;;;;;;17.53;100.00;96048.59;6190135;23;20004;-79
2023/09/01 03:16:59;;;;;;;9.30;3.47;;;;;;;17.13;100.00;96048.63;6191530;23;20004;-78
2023/09/01 03:19:26;;;;;;;6.87;2.80;;;;;;;17.28;100.00;96039.66;6190226;23;20559;-78
2023/09/01 03:21:51;;;;;;;9.20;3.47;;;;;;;17.65;100.00;96046.94;6214089;23;20103;-78
2023/09/01 03:24:17;;;;;;;7.17;3.60;;;;;;;17.73;100.00;96045.09;6189880;23;20036;-78
2023/09/01 03:26:43;;;;;;;6.57;3.47;;;;;;;17.70;100.00;96038.34;6189750;23;20352;-78
2023/09/01 03:29:08;;;;;;;6.63;3.80;;;;;;;18.36;100.00;96042.63;6189906;23;20014;-78
2023/09/01 03:31:34;;;;;;;6.30;3.40;;;;;;;18.03;100.00;96053.41;6187503;23;20043;-78
2023/09/01 03:34:23;;;;;;;9.00;3.60;;;;;;;17.70;100.00;96038.34;6189028;23;20012;-78
2023/09/01 03:36:49;;;;;;;8.27;3.77;;;;;;;17.73;100.00;96039.78;6214744;23;20524;-78
2023/09/01 03:39:15;;;;;;;7.63;3.47;;;;;;;17.62;100.00;96039.38;6189014;23;20057;-79
2023/09/01 03:41:41;;;;;;;5.47;3.10;;;;;;;17.46;100.00;96036.34;6213853;23;20007;-79
2023/09/01 03:44:07;;;;;;;8.07;3.67;;;;;;;17.79;100.00;96038.97;6214711;23;20340;-79
2023/09/01 03:46:34;;;;;;;7.50;3.40;;;;;;;18.00;100.00;96036.03;6187916;23;20011;-78
2023/09/01 03:48:59;;;;;;;6.90;3.57;;;;;;;18.18;100.00;96037.22;6189769;23;20008;-78
2023/09/01 03:51:25;;;;;;;7.30;3.30;;;;;;;17.73;100.00;96031.78;6189579;23;20030;-79
2023/09/01 03:53:51;;;;;;;9.17;3.33;;;;;;;17.57;100.00;96033.91;6189484;23;20007;-79
2023/09/01 03:56:19;;;;;;;7.20;2.60;;;;;;;17.64;100.00;96026.72;6189242;23;20000;-78
2023/09/01 03:58:45;;;;;;;8.50;4.13;;;;;;;17.79;100.00;96026.50;6189176;23;20008;-78
2023/09/01 04:01:18;;;;;;;7.70;3.27;;;;;;;17.94;100.00;96026.25;6189238;23;20011;-78
2023/09/01 04:03:48;;;;;;;8.07;3.20;;;;;;;17.96;100.00;96023.38;6214853;23;20008;-78
2023/09/01 04:06:14;;;;;;;7.03;3.40;;;;;;;17.78;100.00;96032.84;6188832;23;20007;-78
2023/09/01 04:08:40;;;;;;;7.67;3.50;;;;;;;17.98;100.00;96024.78;6189864;23;20008;-78
2023/09/01 04:11:06;;;;;;;6.90;3.30;;;;;;;17.79;100.00;96031.00;6188102;23;20328;-78
2023/09/01 04:13:33;;;;;;;8.90;3.07;;;;;;;17.93;100.00;96040.56;6214047;23;20030;-78
2023/09/01 04:16:00;;;;;;;8.77;3.40;;;;;;;17.85;100.00;96046.13;6189129;23;20011;-78
2023/09/01 04:18:26;;;;;;;6.60;2.77;;;;;;;18.09;100.00;96048.06;6189057;23;20015;-78
2023/09/01 04:20:54;;;;;;;5.40;3.33;;;;;;;17.77;100.00;96055.16;6188603;23;20012;-78
2023/09/01 04:23:20;;;;;;;5.93;3.33;;;;;;;17.91;100.00;96066.56;6213653;23;20062;-78
2023/09/01 04:25:47;;;;;;;8.83;3.40;;;;;;;17.95;100.00;96059.00;6189902;23;20007;-78
2023/09/01 04:28:15;;;;;;;7.20;3.07;;;;;;;17.95;100.00;96066.97;6189688;23;20008;-78
2023/09/01 04:30:45;;;;;;;6.00;3.13;;;;;;;18.18;100.00;96066.47;6188944;23;20004;-78
2023/09/01 04:33:12;;;;;;;5.87;3.30;;;;;;;18.08;100.00;96067.75;6188891;23;20107;-78
2023/09/01 04:35:39;;;;;;;7.10;3.33;;;;;;;17.84;100.00;96068.41;6188743;23;20043;-78
2023/09/01 04:38:06;;;;;;;5.97;2.70;;;;;;;17.65;100.00;96065.56;6189138;23;20008;-78
2023/09/01 04:40:31;;;;;;;8.07;3.37;;;;;;;17.71;100.00;96066.59;6188746;23;20314;-78
2023/09/01 04:42:57;;;;;;;5.50;2.90;;;;;;;17.88;100.00;96072.31;6190698;23;20395;-78
2023/09/01 04:45:23;;;;;;;7.17;2.97;;;;;;;17.83;100.00;96067.59;6215444;23;20008;-78
2023/09/01 04:47:50;;;;;;;8.50;3.70;;;;;;;17.98;100.00;96063.91;6187906;23;20004;-77
2023/09/01 04:50:16;;;;;;;10.43;3.47;;;;;;;17.81;100.00;96067.00;6215161;23;20008;-78
2023/09/01 04:52:54;;;;;;;8.20;2.87;;;;;;;17.80;100.00;96065.34;6190152;23;20004;-78
2023/09/01 04:55:20;;;;;;;8.67;3.10;;;;;;;17.57;100.00;96065.81;6191253;23;20010;-78
2023/09/01 04:57:46;;;;;;;6.80;3.13;;;;;;;17.78;100.00;96062.09;6215634;23;20003;-78
2023/09/01 05:00:18;;;;;;;7.43;3.00;;;;;;;17.84;100.00;96055.09;6192319;23;19992;-77
2023/09/01 05:02:56;;;;;;;5.43;2.80;;;;;;;17.74;100.00;96060.00;6191119;23;20000;-78
2023/09/01 05:05:22;;;;;;;7.90;2.60;;;;;;;18.06;100.00;96059.13;6240494;23;20057;-78
2023/09/01 05:07:48;;;;;;;8.63;3.50;;;;;;;18.11;100.00;96056.69;6190316;23;20016;-78
2023/09/01 05:10:13;;;;;;;8.03;3.17;;;;;;;18.26;100.00;96058.25;6190361;23;20003;-78
2023/09/01 05:12:39;;;;;;;5.10;2.63;;;;;;;18.40;100.00;96054.50;6214977;23;20011;-78
2023/09/01 05:15:05;;;;;;;7.63;2.93;;;;;;;18.12;100.00;96058.31;6190486;23;20036;-78
2023/09/01 05:17:31;;;;;;;7.70;3.22;;;;;;;18.39;100.00;96058.19;6189700;23;20004;-78
2023/09/01 05:19:57;;;;;;;6.78;2.55;;;;;;;18.45;100.00;96065.34;6214943;23;20000;-78
2023/09/01 05:22:24;;;;;;;7.22;2.50;;;;;;;18.51;100.00;96056.50;6187424;23;20008;-78
2023/09/01 05:24:50;;;;;;;6.15;2.85;;;;;;;18.60;100.00;96068.50;6212461;23;20023;-78
2023/09/01 05:27:19;;;;;;;7.45;3.33;;;;;;;18.63;100.00;96064.59;6189314;23;20008;-78
2023/09/01 05:29:46;;;;;;;6.72;2.72;;;;;;;18.80;100.00;96062.28;6189965;23;20410;-78
2023/09/01 05:32:12;;;;;;;6.65;3.35;;;;;;;18.85;100.00;96065.13;6190184;23;20448;-78
2023/09/01 05:34:38;;;;;;;5.80;2.70;;;;;;;19.01;100.00;96066.44;6215811;23;20082;-78
2023/09/01 05:37:04;;;;;;;5.95;3.22;;;;;;;19.04;100.00;96060.69;6190916;23;20070;-78
2023/09/01 05:39:32;;;;;;;5.43;3.13;;;;;;;19.19;100.00;96060.38;6214844;23;20003;-78
2023/09/01 05:41:57;;;;;;;7.03;2.75;;;;;;;19.31;100.00;96056.78;6189275;23;20003;-78
2023/09/01 05:44:24;;;;;;;5.88;2.75;;;;;;;19.34;100.00;96066.19;6189949;23;20301;-78
2023/09/01 05:46:50;;;;;;;4.22;2.42;;;;;;;19.33;100.00;96063.75;6190405;23;20007;-78
2023/09/01 05:49:16;;;;;;;5.35;2.20;;;;;;;19.39;100.00;96070.88;6214830;23;20019;-79
2023/09/01 05:51:41;;;;;;;3.65;2.05;;;;;;;19.62;100.00;96065.75;6189462;23;20333;-79
2023/09/01 05:54:07;;;;;;;4.78;2.30;;;;;;;19.48;100.00;96073.06;6190886;23;20004;-78
2023/09/01 05:56:33;;;;;;;5.28;2.58;;;;;;;19.70;100.00;96073.47;6215929;23;20000;-78
2023/09/01 05:58:58;;;;;;;6.72;2.25;;;;;;;20.01;100.00;96072.53;6214896;23;19996;-78
2023/09/01 06:01:24;;;;;;;4.70;2.30;;;;;;;19.86;100.00;96074.75;6189922;23;20066;-78
2023/09/01 06:03:49;;;;;;;6.35;1.98;;;;;;;19.54;100.00;96092.69;6189939;23;20005;-78
2023/09/01 06:06:24;;;;;;;4.15;1.85;;;;;;;19.73;100.00;96085.56;6189689;23;20020;-78
2023/09/01 06:08:50;;;;;;;5.15;1.95;;;;;;;20.16;100.00;96080.19;6190381;23;20091;-78
2023/09/01 06:11:15;;;;;;;3.85;1.83;;;;;;;19.98;100.00;96088.16;6188718;23;20036;-78
2023/09/01 06:13:41;;;;;;;4.80;2.08;;;;;;;20.07;100.00;96084.19;6215037;23;20008;-78
2023/09/01 06:16:09;;;;;;;5.75;1.95;;;;;;;20.00;100.00;96080.78;6214773;23;20007;-78
2023/09/01 06:18:35;;;;;;;3.22;1.80;;;;;;;20.07;100.00;96089.53;6191127;23;20012;-78
2023/09/01 06:21:00;;;;;;;5.63;1.77;;;;;;;20.06;100.00;96081.75;6197114;23;20007;-78
2023/09/01 06:23:26;;;;;;;3.80;1.70;;;;;;;20.10;100.00;96085.59;6216501;23;19996;-78
2023/09/01 06:25:51;;;;;;;6.32;2.00;;;;;;;20.34;100.00;96089.22;6190074;23;20061;-78
2023/09/01 06:28:17;;;;;;;4.00;2.08;;;;;;;20.44;100.00;96092.97;6214929;23;20004;-78
2023/09/01 06:30:42;;;;;;;4.43;1.83;;;;;;;20.17;100.00;96092.47;6189720;23;20010;-78
2023/09/01 06:33:09;;;;;;;3.20;1.45;;;;;;;20.04;100.00;96103.31;6188963;23;20095;-79
2023/09/01 06:35:35;;;;;;;3.50;1.65;;;;;;;19.75;100.00;96105.66;6188921;23;20058;-78
2023/09/01 06:38:04;;;;;;;3.20;1.50;;;;;;;20.28;100.00;96104.25;6214717;23;20011;-78
2023/09/01 06:40:30;;;;;;;3.28;1.60;;;;;;;20.11;100.00;96097.91;6189129;23;20020;-79
2023/09/01 06:42:56;;;;;;;2.85;1.40;;;;;;;20.30;100.00;96096.84;6190194;23;20447;-78
2023/09/01 06:45:22;;;;;;;5.43;1.50;;;;;;;20.41;100.00;96109.44;6189180;23;20036;-78
2023/09/01 06:47:52;;;;;;;4.95;1.52;;;;;;;20.57;100.00;96101.91;6189136;23;20004;-79
2023/09/01 06:50:19;;;;;;;3.80;1.52;;;;;;;20.04;100.00;96105.16;6213989;23;20015;-79
2023/09/01 06:52:45;;;;;;;3.15;1.80;;;;;;;20.18;100.00;96106.66;6188859;23;20028;-79
2023/09/01 06:55:12;;;;;;;4.22;1.95;;;;;;;19.71;100.00;96116.97;6189279;23;20004;-79
2023/09/01 06:57:38;;;;;;;3.28;1.60;;;;;;;20.05;100.00;96117.47;6214885;23;20083;-79
2023/09/01 07:00:04;;;;;;;3.75;1.52;;;;;;;19.65;100.00;96117.84;6189405;23;20228;-79
2023/09/01 07:02:30;;;;;;;4.07;2.00;;;;;;;19.65;100.00;96120.50;6189223;23;20012;-79
2023/09/01 07:04:55;;;;;;;3.58;1.77;;;;;;;19.48;100.00;96121.06;6214289;23;20011;-79
2023/09/01 07:07:21;;;;;;;4.07;2.10;;;;;;;20.02;100.00;96121.41;6189801;23;20018;-78
2023/09/01 07:09:47;;;;;;;4.43;1.70;;;;;;;20.02;100.00;96122.22;6189084;23;20065;-79
2023/09/01 07:12:13;;;;;;;6.32;1.85;;;;;;;19.86;100.00;96121.97;6188952;23;20004;-79
2023/09/01 07:14:38;;;;;;;6.57;2.10;;;;;;;19.75;100.00;96126.16;6214970;23;20075;-79
2023/09/01 07:17:04;;;;;;;4.10;1.80;;;;;;;19.76;100.00;96128.63;6214087;23;20012;-79
2023/09/01 07:19:29;;;;;;;5.30;2.03;;;;;;;19.76;100.00;96130.50;6189664;23;20008;-79
2023/09/01 07:21:55;;;;;;;6.28;1.98;;;;;;;19.60;100.00;96139.81;6188639;23;20011;-79
2023/09/01 07:24:20;;;;;;;4.10;1.50;;;;;;;19.22;100.00;96147.91;6188351;23;20004;-79
2023/09/01 07:26:46;;;;;;;4.90;1.95;;;;;;;19.22;100.00;96147.91;6214014;23;20000;-78
2023/09/01 07:29:15;;;;;;;5.85;2.10;;;;;;;19.29;100.00;96146.03;6189564;23;20062;-80
2023/09/01 07:31:41;;;;;;;5.93;1.85;;;;;;;19.38;100.00;96154.56;6241026;23;20012;-78
2023/09/01 07:34:06;;;;;;;4.22;1.85;;;;;;;19.02;100.00;96156.84;6188424;23;20010;-78
2023/09/01 07:36:32;;;;;;;3.25;1.98;;;;;;;19.36;100.00;96152.13;6189715;23;20008;-78
2023/09/01 07:38:57;;;;;;;4.75;1.60;;;;;;;18.99;100.00;96159.94;6189261;23;20004;-79
2023/09/01 07:41:23;;;;;;;3.97;1.33;;;;;;;19.14;100.00;96166.81;6215017;23;20004;-78
2023/09/01 07:43:49;;;;;;;2.60;1.95;;;;;;;18.94;100.00;96167.75;6214138;23;20011;-79
2023/09/01 07:46:15;;;;;;;2.67;1.50;;;;;;;19.29;100.00;96162.03;6213395;23;20525;-78
2023/09/01 07:48:40;;;;;;;5.78;1.80;;;;;;;19.81;100.00;96157.31;6189884;23;20004;-78
2023/09/01 07:51:06;;;;;;;2.90;1.85;;;;;;;19.85;100.00;96174.53;6187937;23;20000;-78
2023/09/01 07:53:32;;;;;;;3.20;1.80;;;;;;;19.36;100.00;96167.31;6188341;23;20352;-78
2023/09/01 07:55:58;;;;;;;2.42;1.23;;;;;;;19.48;100.00;96169.06;6188488;23;20000;-79
2023/09/01 07:58:23;;;;;;;2.75;1.60;;;;;;;19.90;100.00;96184.56;6188759;23;20387;-78
2023/09/01 08:00:52;;;;;;;5.05;2.00;;;;;;;20.10;100.00;96173.69;6214010;23;20000;-79
2023/09/01 08:03:18;;;;;;;4.68;1.65;;;;;;;19.85;100.00;96174.53;6186914;23;20459;-78
2023/09/01 08:05:43;;;;;;;4.05;2.08;;;;;;;19.83;100.00;96179.28;6189025;23;20015;-78
2023/09/01 08:08:12;;;;;;;4.03;1.77;;;;;;;20.08;100.00;96184.56;6188318;23;20016;-78
2023/09/01 08:10:37;;;;;;;3.33;1.55;;;;;;;20.04;100.00;96179.91;6187973;23;20058;-79
2023/09/01 08:13:05;;;;;;;5.25;1.90;;;;;;;19.77;100.00;96190.81;6188894;23;20008;-78
2023/09/01 08:15:32;;;;;;;2.15;1.70;;;;;;;19.72;100.00;96190.66;6215401;23;20683;-79
2023/09/01 08:17:58;;;;;;;4.88;1.60;;;;;;;19.81;100.00;96201.88;6191199;23;20027;-79
2023/09/01 08:20:25;;;;;;;4.05;1.45;;;;;;;19.28;100.00;96206.53;6190628;23;20014;-79
2023/09/01 08:22:50;;;;;;;2.35;1.20;;;;;;;19.54;100.00;96192.19;6216513;23;20083;-79
2023/09/01 08:25:16;;;;;;;3.55;1.40;;;;;;;19.85;100.00;96193.22;6191044;23;20020;-79
2023/09/01 08:27:42;;;;;;;2.08;1.20;;;;;;;19.78;100.00;96195.09;6191105;23;20087;-79
2023/09/01 08:30:10;;;;;;;1.88;1.10;;;;;;;19.85;100.00;96203.06;6216240;23;20042;-78
2023/09/01 08:32:40;;;;;;;3.15;1.25;;;;;;;20.10;100.00;96192.38;6190556;23;20099;-78
2023/09/01 08:35:06;;;;;;;1.25;0.70;;;;;;;19.83;100.00;96205.16;6190176;23;20010;-78
2023/09/01 08:37:32;;;;;;;2.97;0.90;;;;;;;20.03;100.00;96208.47;6190793;23;20394;-78
2023/09/01 08:39:57;;;;;;;1.55;0.80;;;;;;;20.18;100.00;96206.25;6241337;23;20547;-78
2023/09/01 08:42:25;;;;;;;2.17;0.80;;;;;;;20.08;100.00;96213.13;6215161;23;20000;-78
2023/09/01 08:44:52;;;;;;;1.42;0.85;;;;;;;20.28;100.00;96211.09;6190246;23;20000;-78
2023/09/01 08:47:23;;;;;;;2.30;0.88;;;;;;;20.01;100.00;96206.00;6190217;23;20031;-78
2023/09/01 08:49:50;;;;;;;0.98;0.77;;;;;;;20.81;100.00;96204.38;6191075;23;20047;-79
2023/09/01 08:52:19;;;;;;;2.72;1.13;;;;;;;20.78;100.00;96202.97;6189286;23;20028;-78
2023/09/01 08:54:46;;;;;;;1.80;1.20;;;;;;;20.69;100.00;96210.47;6188369;23;20010;-79
2023/09/01 08:57:12;;;;;;;3.80;1.13;;;;;;;20.58;100.00;96213.88;6189899;23;20476;-80
2023/09/01 08:59:38;;;;;;;2.10;1.10;;;;;;;20.92;100.00;96208.97;6190159;23;20348;-79
2023/09/01 09:02:07;;;;;;;2.33;1.02;;;;;;;21.01;100.00;96212.16;6212316;23;19993;-79
2023/09/01 09:04:34;;;;;;;1.90;1.10;;;;;;;21.44;100.00;96209.34;6187427;23;20008;-79
2023/09/01 09:07:17;;;;;;;2.65;1.45;;;;;;;21.36;100.00;96206.97;6187115;23;20004;-79
2023/09/01 09:09:53;;;;;;;2.78;0.90;;;;;;;22.00;100.00;96208.03;6214102;23;20763;-78
2023/09/01 09:12:20;;;;;;;3.08;1.20;;;;;;;21.94;100.00;96206.28;6187595;23;20043;-78
2023/09/01 09:14:51;;;;;;;1.92;1.10;;;;;;;21.53;100.00;96204.44;6190957;23;20000;-78
2023/09/01 09:17:20;;;;;;;1.80;1.00;;;;;;;21.79;100.00;96206.72;6215525;23;20011;-78
2023/09/01 09:19:59;;;;;;;2.08;1.20;;;;;;;21.92;100.00;96202.19;6215722;23;20079;-78
2023/09/01 09:22:25;;;;;;;1.42;0.82;;;;;;;22.00;100.00;96201.84;6189400;23;20019;-78
2023/09/01 09:24:51;;;;;;;2.47;0.88;;;;;;;22.20;100.00;96212.25;6190606;23;20008;-78
2023/09/01 09:27:17;;;;;;;1.98;0.80;;;;;;;22.12;100.00;96210.72;6240396;23;20420;-79
2023/09/01 09:29:45;;;;;;;1.33;0.88;;;;;;;22.65;100.00;96211.66;6188159;23;20340;-79
2023/09/01 09:32:18;;;;;;;2.40;1.02;;;;;;;22.77;100.00;96205.22;6212853;23;20111;-78
2023/09/01 09:35:07;;;;;;;1.63;1.08;;;;;;;22.06;100.00;96206.28;6188065;23;20011;-79
2023/09/01 09:37:34;;;;;;;3.75;1.00;;;;;;;22.27;100.00;96203.06;6190025;23;20336;-78
2023/09/01 09:40:29;;;;;;;0.98;0.80;;;;;;;22.55;100.00;96204.19;6190521;23;20091;-78
2023/09/01 09:42:59;;;;;;;1.65;0.93;;;;;;;22.08;100.00;96214.91;6215945;23;20058;-79
2023/09/01 09:45:28;;;;;;;1.60;1.20;;;;;;;21.94;100.00;96208.16;6242632;23;20106;-78
2023/09/01 09:48:01;;;;;;;2.30;0.90;;;;;;;22.12;100.00;96216.88;6189901;23;20012;-78
2023/09/01 09:50:28;;;;;;;1.63;1.00;;;;;;;22.15;100.00;96215.63;6190557;23;20014;-78
2023/09/01 09:53:02;;;;;;;2.13;0.95;;;;;;;22.21;100.00;96216.59;6190575;23;20005;-79
2023/09/01 09:55:29;;;;;;;2.80;1.15;;;;;;;22.40;100.00;96214.56;6189700;23;20008;-79
2023/09/01 09:58:04;;;;;;;2.92;1.13;;;;;;;22.80;100.00;96207.44;6190436;23;20436;-78
2023/09/01 10:00:55;;;;;;;4.40;1.70;;;;;;;21.83;100.00;96215.09;6214915;23;20008;-78
2023/09/01 10:03:23;;;;;;;2.08;0.90;;;;;;;22.75;100.00;96209.19;6215022;23;20000;-79
2023/09/01 10:05:54;;;;;;;3.22;1.15;;;;;;;22.91;100.00;96207.63;6189715;23;20004;-79
2023/09/01 10:08:21;;;;;;;1.75;0.85;;;;;;;22.64;100.00;96196.63;6190146;23;20322;-78
2023/09/01 10:10:49;;;;;;;3.22;1.25;;;;;;;22.31;100.00;96209.59;6214469;23;20008;-79
2023/09/01 10:13:15;;;;;;;3.88;1.13;;;;;;;22.46;100.00;96205.59;6190999;23;20012;-79
2023/09/01 10:15:42;;;;;;;3.05;1.08;;;;;;;23.25;100.00;96212.06;6215512;23;20004;-78
2023/09/01 10:18:09;;;;;;;3.53;1.00;;;;;;;23.28;100.00;96219.66;6215767;23;20497;-78
2023/09/01 10:20:42;;;;;;;1.75;1.00;;;;;;;23.32;100.00;96213.81;6241870;23;20070;-79
2023/09/01 10:23:08;;;;;;;;;;;;;;;23.53;100.00;96210.44;6215017;23;20000;-79
2023/09/01 10:25:37;;;;;;;2.67;1.13;;;;;;;23.43;100.00;96205.69;6214624;23;19911;-78
2023/09/01 10:28:11;;;;;;;2.78;1.10;;;;;;;23.68;100.00;96196.50;6189733;23;20749;-78
2023/09/01 10:30:46;;;;;;;2.13;0.95;;;;;;;25.08;100.00;96197.16;6240269;23;20008;-79
2023/09/01 10:33:26;;;;;;;1.20;0.70;;;;;;;24.76;100.00;96199.72;6214477;23;20075;-79
2023/09/01 10:35:53;;;;;;;1.80;0.88;;;;;;;26.16;100.00;96190.09;6214749;23;20000;-79
2023/09/01 10:38:21;;;;;;;2.10;0.90;;;;;;;26.24;100.00;96187.72;6215316;23;20007;-79
2023/09/01 10:40:50;;;;;;;2.67;1.27;;;;;;;26.29;100.00;96187.78;6189386;23;20004;-80
2023/09/01 10:43:31;;;;;;;2.58;1.00;;;;;;;25.73;100.00;96187.31;6216273;23;20012;-79
2023/09/01 10:46:12;;;;;;;3.08;1.10;;;;;;;25.16;100.00;96183.28;6189115;23;20544;-80
2023/09/01 10:48:57;;;;;;;1.52;0.90;;;;;;;25.39;100.00;96186.75;6214913;23;20000;-79
2023/09/01 10:51:31;;;;;;;1.85;1.17;;;;;;;25.97;100.00;96179.72;6189648;23;20012;-80
2023/09/01 10:54:01;;;;;;;2.15;1.08;;;;;;;25.81;100.00;96189.56;6188905;23;20015;-79
2023/09/01 10:56:33;;;;;;;2.65;1.55;;;;;;;26.14;100.00;96184.97;6214095;23;20380;-78
2023/09/01 10:58:59;;;;;;;1.65;0.73;;;;;;;26.37;100.00;96183.75;6189475;23;20328;-78
2023/09/01 11:01:34;;;;;;;5.22;1.40;;;;;;;25.54;100.00;96194.13;6189479;23;20019;-80
2023/09/01 11:04:29;;;;;;;2.13;1.23;;;;;;;25.17;100.00;96192.97;6189519;23;20003;-80
2023/09/01 11:06:58;;;;;;;3.50;1.45;;;;;;;25.24;100.00;96191.94;6164911;23;20515;-80
2023/09/01 11:09:44;;;;;;;3.70;1.00;;;;;;;25.20;100.00;96196.22;6190510;23;20004;-78
2023/09/01 11:12:13;;;;;;;3.20;1.20;;;;;;;24.85;100.00;96186.66;6188043;23;20000;-78
2023/09/01 11:14:55;;;;;;;3.38;1.17;;;;;;;25.10;100.00;96184.25;6189207;23;20087;-79
2023/09/01 11:17:41;;;;;;;2.45;1.20;;;;;;;25.20;100.00;96180.88;6213646;23;20016;-78
2023/09/01 11:20:09;;;;;;;4.97;1.58;;;;;;;25.97;100.00;96182.41;6213255;23;20495;-78
2023/09/01 11:22:40;;;;;;;3.95;1.33;;;;;;;25.74;100.00;96180.03;6186968;23;19992;-79
2023/09/01 11:25:12;;;;;;;1.58;0.95;;;;;;;26.63;100.00;96173.97;6213858;23;20023;-78
2023/09/01 11:27:42;;;;;;;2.92;1.08;;;;;;;26.94;100.00;96174.88;6189824;23;20004;-78
2023/09/01 11:30:09;;;;;;;2.13;1.20;;;;;;;26.44;100.00;96168.16;6188977;23;20008;-79